« Back
NWS Peachtree City, Ga » Text Product » AHN Terminal Aerodrome Forecast


Printer-friendly Version
Current Version              Previous Versions:   1  2  3  4  5  6  7  8  9  

Terminal Aerodrome Forecast

681
FTUS42 KFFC 162100 AAA
TAFAHN
TAF AMD
KAHN 162159Z 1622/1718 11007KT P6SM SKC
     FM171200 08010KT P6SM SCT250
     FM171600 10010G20KT P6SM BKN040 BKN250=



USA.gov is the U.S. government's official web portal to all federal, state and local government web resources and services.